Time;durP1;ratioP1;P1;durP2;ratioP2;P2;SDS_P1;SDS_P2;PMS_P1;PMS_P2;Temp;Humidity;BMP_temperature;BMP_pressure;BME280_temperature;BME280_humidity;BME280_pressure;Samples;Min_cycle;Max_cycle;Signal;HPM_P1;HPM_P2
2023/05/18 00:02:17;;;;;;;3.55;1.10;;;;;;;;;;4974889;28;20046;-75
2023/05/18 00:04:42;;;;;;;6.03;1.00;;;;;;;;;;4978420;28;20405;-75
2023/05/18 00:07:08;;;;;;;4.63;1.00;;;;;;;;;;4992650;28;20034;-75
2023/05/18 00:09:35;;;;;;;5.07;1.00;;;;;;;;;;4974759;28;20096;-75
2023/05/18 00:12:01;;;;;;;4.43;0.77;;;;;;;;;;4976780;28;20104;-75
2023/05/18 00:14:27;;;;;;;8.25;1.33;;;;;;;;;;4976272;28;20300;-75
2023/05/18 00:16:53;;;;;;;3.67;0.88;;;;;;;;;;4973785;28;20041;-75
2023/05/18 00:19:20;;;;;;;5.75;1.20;;;;;;;;;;4975359;28;20034;-75
2023/05/18 00:21:46;;;;;;;4.03;0.98;;;;;;;;;;4991186;28;20041;-76
2023/05/18 00:24:12;;;;;;;5.97;1.20;;;;;;;;;;4977038;28;20062;-75
2023/05/18 00:26:38;;;;;;;6.43;1.30;;;;;;;;;;4991056;28;20037;-75
2023/05/18 00:29:04;;;;;;;4.03;0.90;;;;;;;;;;4993904;28;20803;-75
2023/05/18 00:31:34;;;;;;;7.22;1.73;;;;;;;;;;4958288;28;20132;-77
2023/05/18 00:34:04;;;;;;;3.40;1.02;;;;;;;;;;4969652;28;20444;-77
2023/05/18 00:36:30;;;;;;;2.55;0.82;;;;;;;;;;4974874;28;20026;-77
2023/05/18 00:38:58;;;;;;;5.03;1.35;;;;;;;;;;4994397;28;20026;-76
2023/05/18 00:41:25;;;;;;;7.18;0.98;;;;;;;;;;4993450;28;20033;-77
2023/05/18 00:43:50;;;;;;;3.53;0.80;;;;;;;;;;4993735;28;20121;-77
2023/05/18 00:46:16;;;;;;;6.60;1.00;;;;;;;;;;4990304;28;20445;-77
2023/05/18 00:48:42;;;;;;;6.65;1.25;;;;;;;;;;4993993;28;20382;-76
2023/05/18 00:51:07;;;;;;;10.88;1.67;;;;;;;;;;4989829;28;20073;-77
2023/05/18 00:53:33;;;;;;;5.15;1.05;;;;;;;;;;4991507;28;20889;-76
2023/05/18 00:55:58;;;;;;;5.15;1.40;;;;;;;;;;4992711;28;20452;-76
2023/05/18 00:58:25;;;;;;;5.50;1.20;;;;;;;;;;4975885;28;20041;-77
2023/05/18 01:00:51;;;;;;;6.43;1.00;;;;;;;;;;4993371;28;20042;-77
2023/05/18 01:03:20;;;;;;;7.65;1.55;;;;;;;;;;4991810;28;20485;-76
2023/05/18 01:05:48;;;;;;;3.30;0.98;;;;;;;;;;4975347;28;20390;-77
2023/05/18 01:08:15;;;;;;;6.63;0.80;;;;;;;;;;4993577;28;20058;-76
2023/05/18 01:10:42;;;;;;;6.78;1.10;;;;;;;;;;4990640;28;20590;-76
2023/05/18 01:13:22;;;;;;;7.85;0.98;;;;;;;;;;4977682;28;20030;-76
2023/05/18 01:15:51;;;;;;;3.85;1.00;;;;;;;;;;4957652;28;20034;-76
2023/05/18 01:18:31;;;;;;;3.35;0.80;;;;;;;;;;4976784;28;20502;-76
2023/05/18 01:21:18;;;;;;;8.50;1.50;;;;;;;;;;4975136;28;20533;-76
2023/05/18 01:24:20;;;;;;;4.93;0.88;;;;;;;;;;4991324;28;20042;-76
2023/05/18 01:26:47;;;;;;;3.90;1.13;;;;;;;;;;4969845;28;20125;-76
2023/05/18 01:29:13;;;;;;;5.30;0.93;;;;;;;;;;4994718;28;20053;-76
2023/05/18 01:31:38;;;;;;;4.75;1.05;;;;;;;;;;4964358;28;20026;-76
2023/05/18 01:34:05;;;;;;;3.22;0.80;;;;;;;;;;4999288;28;20030;-76
2023/05/18 01:36:30;;;;;;;2.78;1.15;;;;;;;;;;4977834;28;20034;-76
2023/05/18 01:39:00;;;;;;;4.78;0.90;;;;;;;;;;4978343;28;20031;-76
2023/05/18 01:41:26;;;;;;;7.35;1.02;;;;;;;;;;4976242;28;20497;-76
2023/05/18 01:44:00;;;;;;;5.07;1.00;;;;;;;;;;4996195;28;20061;-76
2023/05/18 01:46:45;;;;;;;5.40;1.02;;;;;;;;;;4993025;28;20042;-76
2023/05/18 01:49:40;;;;;;;6.28;1.17;;;;;;;;;;4979001;28;20030;-76
2023/05/18 01:52:08;;;;;;;7.45;1.10;;;;;;;;;;4987434;28;20046;-76
2023/05/18 01:54:36;;;;;;;3.40;0.93;;;;;;;;;;4995341;28;20591;-76
2023/05/18 01:57:02;;;;;;;5.95;0.98;;;;;;;;;;4994444;28;20050;-76
2023/05/18 01:59:28;;;;;;;3.47;0.95;;;;;;;;;;4996983;28;20036;-76
2023/05/18 02:01:57;;;;;;;5.20;1.20;;;;;;;;;;4977439;28;20035;-76
2023/05/18 02:04:23;;;;;;;4.53;0.95;;;;;;;;;;4978486;28;20493;-76
2023/05/18 02:06:48;;;;;;;5.78;0.85;;;;;;;;;;4993035;28;20038;-76
2023/05/18 02:09:13;;;;;;;6.07;1.17;;;;;;;;;;4979154;28;20041;-76
2023/05/18 02:11:39;;;;;;;5.25;1.10;;;;;;;;;;4992828;28;20031;-76
2023/05/18 02:14:04;;;;;;;6.75;1.20;;;;;;;;;;4977550;28;20397;-76
2023/05/18 02:16:29;;;;;;;5.70;1.13;;;;;;;;;;4994264;28;20478;-76
2023/05/18 02:18:55;;;;;;;6.93;1.67;;;;;;;;;;4972536;28;20034;-76
2023/05/18 02:21:21;;;;;;;4.78;1.15;;;;;;;;;;4976101;28;20030;-76
2023/05/18 02:23:46;;;;;;;4.78;1.02;;;;;;;;;;4977066;28;20033;-77
2023/05/18 02:26:11;;;;;;;8.88;1.58;;;;;;;;;;4977961;28;20049;-76
2023/05/18 02:28:38;;;;;;;6.68;1.33;;;;;;;;;;4975905;28;20030;-76
2023/05/18 02:31:08;;;;;;;4.50;0.77;;;;;;;;;;4976918;28;20085;-76
2023/05/18 02:33:38;;;;;;;6.03;1.73;;;;;;;;;;4978760;28;20560;-76
2023/05/18 02:36:08;;;;;;;5.80;1.08;;;;;;;;;;4979513;28;20034;-76
2023/05/18 02:38:36;;;;;;;3.90;0.93;;;;;;;;;;4960581;28;20525;-76
2023/05/18 02:41:01;;;;;;;5.40;0.80;;;;;;;;;;4993752;28;20038;-76
2023/05/18 02:43:26;;;;;;;5.20;1.08;;;;;;;;;;4979164;28;20512;-76
2023/05/18 02:45:52;;;;;;;5.47;1.35;;;;;;;;;;4994213;28;20034;-76
2023/05/18 02:48:17;;;;;;;4.05;0.77;;;;;;;;;;4994450;28;20030;-76
2023/05/18 02:50:44;;;;;;;4.80;0.77;;;;;;;;;;4992174;28;20118;-76
2023/05/18 02:53:10;;;;;;;2.88;0.85;;;;;;;;;;4971756;28;20104;-76
2023/05/18 02:55:36;;;;;;;4.32;1.00;;;;;;;;;;4995770;28;20441;-76
2023/05/18 02:58:02;;;;;;;5.38;1.27;;;;;;;;;;4961002;28;20070;-76
2023/05/18 03:00:29;;;;;;;5.18;1.30;;;;;;;;;;4974135;28;20172;-76
2023/05/18 03:02:56;;;;;;;5.82;0.90;;;;;;;;;;4978032;28;20034;-76
2023/05/18 03:05:22;;;;;;;6.38;1.60;;;;;;;;;;4976957;28;20494;-77
2023/05/18 03:07:49;;;;;;;5.78;1.08;;;;;;;;;;4976046;28;20442;-76
2023/05/18 03:10:16;;;;;;;4.05;1.08;;;;;;;;;;4977505;28;20065;-76
2023/05/18 03:12:41;;;;;;;10.48;1.00;;;;;;;;;;4976310;28;20529;-76
2023/05/18 03:15:07;;;;;;;5.70;1.08;;;;;;;;;;4994047;28;20162;-76
2023/05/18 03:17:33;;;;;;;8.55;1.40;;;;;;;;;;4994467;28;20101;-76
2023/05/18 03:19:58;;;;;;;5.45;0.98;;;;;;;;;;4996634;28;20036;-76
2023/05/18 03:22:23;;;;;;;5.93;1.20;;;;;;;;;;4975948;28;20026;-76
2023/05/18 03:24:50;;;;;;;4.30;0.90;;;;;;;;;;4994030;28;20505;-76
2023/05/18 03:27:17;;;;;;;3.08;0.80;;;;;;;;;;4993969;28;20039;-78
2023/05/18 03:29:43;;;;;;;7.82;1.75;;;;;;;;;;4994918;28;20506;-76
2023/05/18 03:32:08;;;;;;;3.92;0.93;;;;;;;;;;4974181;28;20069;-76
2023/05/18 03:34:34;;;;;;;5.10;1.00;;;;;;;;;;4976601;28;20038;-76
2023/05/18 03:36:59;;;;;;;6.10;0.85;;;;;;;;;;4976322;28;20033;-76
2023/05/18 03:39:25;;;;;;;4.97;1.38;;;;;;;;;;4976747;28;20034;-76
2023/05/18 03:41:50;;;;;;;5.22;1.58;;;;;;;;;;4993403;28;20096;-77
2023/05/18 03:44:17;;;;;;;6.93;1.27;;;;;;;;;;4974726;28;20038;-76
2023/05/18 03:46:42;;;;;;;4.70;1.10;;;;;;;;;;4976612;28;20100;-76
2023/05/18 03:49:08;;;;;;;5.43;1.30;;;;;;;;;;4976250;28;20039;-76
2023/05/18 03:51:33;;;;;;;5.70;1.17;;;;;;;;;;4992986;28;20488;-76
2023/05/18 03:53:58;;;;;;;8.45;1.10;;;;;;;;;;4958358;28;20034;-76
2023/05/18 03:56:24;;;;;;;4.53;1.00;;;;;;;;;;4977587;28;20049;-76
2023/05/18 03:58:50;;;;;;;7.03;1.10;;;;;;;;;;4993812;28;20529;-76
2023/05/18 04:01:17;;;;;;;5.93;1.00;;;;;;;;;;4992101;28;20034;-76
2023/05/18 04:03:44;;;;;;;4.85;1.27;;;;;;;;;;4992478;28;20549;-76
2023/05/18 04:06:09;;;;;;;7.38;1.23;;;;;;;;;;4978919;28;20030;-75
2023/05/18 04:08:35;;;;;;;7.03;1.40;;;;;;;;;;4977750;28;20039;-76
2023/05/18 04:11:01;;;;;;;7.07;1.40;;;;;;;;;;4994268;28;20628;-75
2023/05/18 04:13:27;;;;;;;4.93;1.08;;;;;;;;;;4976173;28;20401;-76
2023/05/18 04:15:52;;;;;;;6.00;1.60;;;;;;;;;;4975490;28;20043;-76
2023/05/18 04:18:17;;;;;;;3.25;1.40;;;;;;;;;;4975758;28;20041;-76
2023/05/18 04:20:44;;;;;;;3.95;1.27;;;;;;;;;;4991788;28;20557;-76
2023/05/18 04:23:10;;;;;;;7.67;1.20;;;;;;;;;;4968438;28;20137;-76
2023/05/18 04:25:38;;;;;;;6.25;1.20;;;;;;;;;;4975647;28;20293;-76
2023/05/18 04:28:03;;;;;;;5.68;1.10;;;;;;;;;;4993229;28;20044;-76
2023/05/18 04:30:29;;;;;;;9.65;1.20;;;;;;;;;;4992543;28;20038;-76
2023/05/18 04:32:56;;;;;;;5.05;1.10;;;;;;;;;;4992377;28;20076;-75
2023/05/18 04:35:24;;;;;;;6.35;1.48;;;;;;;;;;4993078;28;20325;-77
2023/05/18 04:37:49;;;;;;;6.43;1.42;;;;;;;;;;4975127;28;20038;-76
2023/05/18 04:40:16;;;;;;;8.18;1.25;;;;;;;;;;4977017;28;20085;-75
2023/05/18 04:42:44;;;;;;;6.72;1.33;;;;;;;;;;4975916;28;20486;-76
2023/05/18 04:45:19;;;;;;;5.18;1.67;;;;;;;;;;4989293;28;20030;-77
2023/05/18 04:47:46;;;;;;;7.55;1.67;;;;;;;;;;4977182;28;20043;-76
2023/05/18 04:50:15;;;;;;;7.50;1.67;;;;;;;;;;4977255;28;20037;-76
2023/05/18 04:52:46;;;;;;;5.00;1.50;;;;;;;;;;4990034;28;20055;-76
2023/05/18 04:55:12;;;;;;;7.85;1.33;;;;;;;;;;4975836;28;20030;-77
2023/05/18 04:57:38;;;;;;;7.70;1.80;;;;;;;;;;4973820;28;20121;-77
2023/05/18 05:00:04;;;;;;;6.60;1.50;;;;;;;;;;4975059;28;20285;-77
2023/05/18 05:02:30;;;;;;;3.92;1.35;;;;;;;;;;4974520;28;20946;-76
2023/05/18 05:04:55;;;;;;;9.70;2.53;;;;;;;;;;4971647;28;20131;-76
2023/05/18 05:07:21;;;;;;;7.90;1.40;;;;;;;;;;4976666;28;20030;-77
2023/05/18 05:09:46;;;;;;;8.30;1.77;;;;;;;;;;4974805;28;20054;-77
2023/05/18 05:12:12;;;;;;;7.75;1.30;;;;;;;;;;4992060;28;20356;-77
2023/05/18 05:14:37;;;;;;;5.22;1.45;;;;;;;;;;4975888;28;20034;-76
2023/05/18 05:17:02;;;;;;;7.22;1.67;;;;;;;;;;4993186;28;20370;-76
2023/05/18 05:19:28;;;;;;;6.57;1.27;;;;;;;;;;4973165;28;20057;-76
2023/05/18 05:21:53;;;;;;;5.68;1.20;;;;;;;;;;4975026;28;20113;-76
2023/05/18 05:24:18;;;;;;;5.65;1.38;;;;;;;;;;4991660;28;20057;-76
2023/05/18 05:26:44;;;;;;;5.97;1.38;;;;;;;;;;4992864;28;20214;-76
2023/05/18 05:29:09;;;;;;;6.57;1.35;;;;;;;;;;4959398;28;20034;-76
2023/05/18 05:31:35;;;;;;;6.53;1.50;;;;;;;;;;4983954;28;20448;-76
2023/05/18 05:34:00;;;;;;;13.18;1.85;;;;;;;;;;4974499;28;20097;-76
2023/05/18 05:36:25;;;;;;;6.90;1.80;;;;;;;;;;4988612;28;20383;-76
2023/05/18 05:38:51;;;;;;;5.75;1.58;;;;;;;;;;4992490;28;20030;-77
2023/05/18 05:41:16;;;;;;;6.82;1.38;;;;;;;;;;4971997;28;20656;-77
2023/05/18 05:43:42;;;;;;;5.30;1.30;;;;;;;;;;4968783;28;20030;-76
2023/05/18 05:46:07;;;;;;;4.72;1.17;;;;;;;;;;4990406;28;20034;-75
2023/05/18 05:48:32;;;;;;;7.18;1.45;;;;;;;;;;4973484;28;20029;-75
2023/05/18 05:50:58;;;;;;;9.07;1.58;;;;;;;;;;4993861;28;20500;-75
2023/05/18 05:53:23;;;;;;;4.03;1.10;;;;;;;;;;4990353;28;20039;-75
2023/05/18 05:55:49;;;;;;;7.65;1.60;;;;;;;;;;4989891;28;20030;-75
2023/05/18 05:58:17;;;;;;;6.53;1.33;;;;;;;;;;4952972;28;20461;-76
2023/05/18 06:00:45;;;;;;;4.80;1.30;;;;;;;;;;4974403;28;20045;-76
2023/05/18 06:03:11;;;;;;;8.70;1.95;;;;;;;;;;4975246;28;20509;-75
2023/05/18 06:05:36;;;;;;;5.20;1.50;;;;;;;;;;4990825;28;20168;-76
2023/05/18 06:08:02;;;;;;;11.57;1.73;;;;;;;;;;4991726;28;20042;-76
2023/05/18 06:10:27;;;;;;;5.38;1.30;;;;;;;;;;4971084;28;20214;-75
2023/05/18 06:12:52;;;;;;;5.82;1.17;;;;;;;;;;4973335;28;20479;-76
2023/05/18 06:15:18;;;;;;;6.07;1.17;;;;;;;;;;4975688;28;20031;-76
2023/05/18 06:17:44;;;;;;;6.45;1.40;;;;;;;;;;4976827;28;20034;-75
2023/05/18 06:20:10;;;;;;;4.72;0.93;;;;;;;;;;4979191;28;20398;-76
2023/05/18 06:22:35;;;;;;;5.82;1.35;;;;;;;;;;4975566;28;20072;-76
2023/05/18 06:25:01;;;;;;;6.20;1.10;;;;;;;;;;4974890;28;20050;-76
2023/05/18 06:27:47;;;;;;;4.57;1.00;;;;;;;;;;4975630;28;20031;-77
2023/05/18 06:30:13;;;;;;;4.60;1.00;;;;;;;;;;4890373;29;20106;-77
2023/05/18 06:32:38;;;;;;;6.63;1.20;;;;;;;;;;4895245;29;20123;-74
2023/05/18 06:35:05;;;;;;;4.78;1.05;;;;;;;;;;4896019;29;20045;-77
2023/05/18 06:37:30;;;;;;;6.15;1.00;;;;;;;;;;4893240;29;20799;-76
2023/05/18 06:39:57;;;;;;;4.93;1.08;;;;;;;;;;4891912;29;20036;-77
2023/05/18 06:42:22;;;;;;;5.57;1.17;;;;;;;;;;4896019;29;20557;-76
2023/05/18 06:44:49;;;;;;;3.70;1.20;;;;;;;;;;4889788;29;20164;-77
2023/05/18 06:47:15;;;;;;;7.55;1.20;;;;;;;;;;4897876;29;20040;-75
2023/05/18 06:49:41;;;;;;;4.28;1.10;;;;;;;;;;4897737;29;20045;-75
2023/05/18 06:52:08;;;;;;;3.58;0.90;;;;;;;;;;4879542;29;20134;-75
2023/05/18 06:54:37;;;;;;;7.10;1.00;;;;;;;;;;4898817;29;20040;-75
2023/05/18 06:57:02;;;;;;;5.13;1.00;;;;;;;;;;4878177;29;20090;-75
2023/05/18 06:59:28;;;;;;;10.02;1.30;;;;;;;;;;4895598;29;20043;-75
2023/05/18 07:01:53;;;;;;;5.35;1.05;;;;;;;;;;4894766;29;20160;-75
2023/05/18 07:04:18;;;;;;;5.28;1.15;;;;;;;;;;4897706;29;20044;-76
2023/05/18 07:06:45;;;;;;;5.43;1.20;;;;;;;;;;4919124;28;20042;-75
2023/05/18 07:09:11;;;;;;;3.97;0.80;;;;;;;;;;4975213;28;20686;-77
2023/05/18 07:11:36;;;;;;;6.13;1.13;;;;;;;;;;4973461;28;20046;-76
2023/05/18 07:14:01;;;;;;;4.30;0.85;;;;;;;;;;4962348;28;20050;-76
2023/05/18 07:16:27;;;;;;;5.55;1.15;;;;;;;;;;4971518;28;20037;-76
2023/05/18 07:18:52;;;;;;;7.72;1.13;;;;;;;;;;4978765;28;20065;-76
2023/05/18 07:21:17;;;;;;;5.15;1.08;;;;;;;;;;4975110;28;20035;-77
2023/05/18 07:23:43;;;;;;;2.50;0.70;;;;;;;;;;4960239;28;20125;-77
2023/05/18 07:26:10;;;;;;;7.25;1.02;;;;;;;;;;4955957;28;20043;-74
2023/05/18 07:28:36;;;;;;;6.88;0.90;;;;;;;;;;4974097;28;20046;-76
2023/05/18 07:31:01;;;;;;;4.72;0.98;;;;;;;;;;4957119;28;20082;-77
2023/05/18 07:33:27;;;;;;;7.00;1.20;;;;;;;;;;4977161;28;20054;-75
2023/05/18 07:35:53;;;;;;;4.45;1.00;;;;;;;;;;4989913;28;20070;-76
2023/05/18 07:38:18;;;;;;;6.55;1.10;;;;;;;;;;4988106;28;20478;-76
2023/05/18 07:40:43;;;;;;;5.38;1.20;;;;;;;;;;4974619;28;20041;-76
2023/05/18 07:43:09;;;;;;;6.30;1.25;;;;;;;;;;4973596;28;20047;-77
2023/05/18 07:45:34;;;;;;;6.57;1.25;;;;;;;;;;4975442;28;20034;-75
2023/05/18 07:48:00;;;;;;;5.53;1.52;;;;;;;;;;4991209;28;20043;-76
2023/05/18 07:50:28;;;;;;;7.93;1.10;;;;;;;;;;4972724;28;20128;-76
2023/05/18 07:52:53;;;;;;;;;;;;;;;;;;4973359;28;20066;-75
2023/05/18 07:55:19;;;;;;;8.25;1.33;;;;;;;;;;4976118;28;19956;-77
2023/05/18 07:57:44;;;;;;;3.92;1.00;;;;;;;;;;4974924;28;20035;-76
2023/05/18 08:00:10;;;;;;;5.10;1.17;;;;;;;;;;4974212;28;20041;-76
2023/05/18 08:02:36;;;;;;;4.90;0.82;;;;;;;;;;4971731;28;20066;-74
2023/05/18 08:05:02;;;;;;;2.55;0.98;;;;;;;;;;4973785;28;20046;-76
2023/05/18 08:07:28;;;;;;;4.45;0.98;;;;;;;;;;4974213;28;20031;-76
2023/05/18 08:09:55;;;;;;;4.40;1.20;;;;;;;;;;4973435;28;20045;-76
2023/05/18 08:12:20;;;;;;;3.90;0.73;;;;;;;;;;4974525;28;20693;-73
2023/05/18 08:14:45;;;;;;;4.40;1.00;;;;;;;;;;4973425;28;20037;-77
2023/05/18 08:17:11;;;;;;;3.53;0.77;;;;;;;;;;4972174;28;20030;-75
2023/05/18 08:19:37;;;;;;;4.03;1.00;;;;;;;;;;4975012;28;20504;-73
2023/05/18 08:22:02;;;;;;;3.78;1.00;;;;;;;;;;4956017;28;20149;-73
2023/05/18 08:24:28;;;;;;;4.10;1.25;;;;;;;;;;4981627;28;20852;-72
2023/05/18 08:26:53;;;;;;;3.50;1.00;;;;;;;;;;4993666;28;20045;-71
2023/05/18 08:29:19;;;;;;;3.75;0.88;;;;;;;;;;4993346;28;20030;-71
2023/05/18 08:31:45;;;;;;;2.35;0.80;;;;;;;;;;4991783;28;20446;-72
2023/05/18 08:34:11;;;;;;;3.75;1.00;;;;;;;;;;4991809;28;20448;-72
2023/05/18 08:36:36;;;;;;;4.20;0.90;;;;;;;;;;4992537;28;20137;-72
2023/05/18 08:39:03;;;;;;;6.53;1.20;;;;;;;;;;4993014;28;20050;-72
2023/05/18 08:41:31;;;;;;;1.92;0.73;;;;;;;;;;4973166;28;20572;-72
2023/05/18 08:44:06;;;;;;;3.95;0.80;;;;;;;;;;4974340;28;20030;-72
2023/05/18 08:46:33;;;;;;;3.53;0.70;;;;;;;;;;4990396;28;20517;-72
2023/05/18 08:49:00;;;;;;;5.20;0.90;;;;;;;;;;4992352;28;20497;-72
2023/05/18 08:51:28;;;;;;;5.70;0.95;;;;;;;;;;4991489;28;20076;-73
2023/05/18 08:53:54;;;;;;;4.35;0.70;;;;;;;;;;4992565;28;20441;-72
2023/05/18 08:56:22;;;;;;;3.53;0.88;;;;;;;;;;4994836;28;20030;-72
2023/05/18 08:58:49;;;;;;;3.35;0.73;;;;;;;;;;4994271;28;20038;-72
2023/05/18 09:01:15;;;;;;;5.85;1.13;;;;;;;;;;4993654;28;20125;-72
2023/05/18 09:03:40;;;;;;;5.30;1.48;;;;;;;;;;4975570;28;20040;-73
2023/05/18 09:06:06;;;;;;;5.38;1.02;;;;;;;;;;4975103;28;20073;-74
2023/05/18 09:08:32;;;;;;;4.82;1.17;;;;;;;;;;4978299;28;20030;-72
2023/05/18 09:11:00;;;;;;;4.55;1.20;;;;;;;;;;4990409;28;20050;-73
2023/05/18 09:13:25;;;;;;;;;;;;;;;;;;4977344;28;21032;-72
2023/05/18 09:15:51;;;;;;;4.35;0.98;;;;;;;;;;4974146;28;20005;-74
2023/05/18 09:18:16;;;;;;;4.85;1.05;;;;;;;;;;4990827;28;20034;-72
2023/05/18 09:20:42;;;;;;;4.38;0.93;;;;;;;;;;4994477;28;20077;-72
2023/05/18 09:23:07;;;;;;;4.85;0.85;;;;;;;;;;4977701;28;20457;-72
2023/05/18 09:25:36;;;;;;;5.22;1.00;;;;;;;;;;4990159;28;20121;-72
2023/05/18 09:28:03;;;;;;;5.43;1.20;;;;;;;;;;4994330;28;20919;-71
2023/05/18 09:30:28;;;;;;;5.25;1.20;;;;;;;;;;4976851;28;20062;-72
2023/05/18 09:32:54;;;;;;;2.63;0.70;;;;;;;;;;4992183;28;20073;-72
2023/05/18 09:35:19;;;;;;;6.10;0.75;;;;;;;;;;4991799;28;20057;-73
2023/05/18 09:37:45;;;;;;;5.10;1.02;;;;;;;;;;4992768;28;20049;-73
2023/05/18 09:40:10;;;;;;;5.38;0.80;;;;;;;;;;4966428;28;20113;-73
2023/05/18 09:42:42;;;;;;;4.60;1.13;;;;;;;;;;4956923;28;20177;-75
2023/05/18 09:45:25;;;;;;;4.43;0.75;;;;;;;;;;4993168;28;20039;-74
2023/05/18 09:47:51;;;;;;;3.47;0.82;;;;;;;;;;4989864;28;20045;-74
2023/05/18 09:50:21;;;;;;;3.20;0.75;;;;;;;;;;4974809;28;20113;-74
2023/05/18 09:52:48;;;;;;;4.85;0.75;;;;;;;;;;4976138;28;20245;-74
2023/05/18 09:55:19;;;;;;;3.10;0.85;;;;;;;;;;4964939;28;20371;-76
2023/05/18 09:57:46;;;;;;;3.13;0.73;;;;;;;;;;4995537;28;20038;-75
2023/05/18 10:00:17;;;;;;;5.10;1.37;;;;;;;;;;4981749;28;20867;-75
2023/05/18 10:02:49;;;;;;;2.60;0.70;;;;;;;;;;4975248;28;20284;-74
2023/05/18 10:05:41;;;;;;;4.00;0.88;;;;;;;;;;4976988;28;20069;-75
2023/05/18 10:08:06;;;;;;;5.43;0.75;;;;;;;;;;4891864;29;20044;-74
2023/05/18 10:10:37;;;;;;;4.25;0.85;;;;;;;;;;4906701;29;20670;-74
2023/05/18 10:13:03;;;;;;;4.15;0.80;;;;;;;;;;4874930;29;20580;-75
2023/05/18 10:15:28;;;;;;;4.35;1.00;;;;;;;;;;4892625;29;20040;-75
2023/05/18 10:17:56;;;;;;;3.13;0.63;;;;;;;;;;4904844;29;20531;-75
2023/05/18 10:20:23;;;;;;;2.72;0.55;;;;;;;;;;4901414;29;20104;-75
2023/05/18 10:22:49;;;;;;;3.10;0.70;;;;;;;;;;4906949;29;20858;-76
2023/05/18 10:25:19;;;;;;;3.45;0.68;;;;;;;;;;4905753;29;20084;-75
2023/05/18 10:27:47;;;;;;;3.50;0.90;;;;;;;;;;4891846;29;20046;-75
2023/05/18 10:30:13;;;;;;;2.33;0.73;;;;;;;;;;4891709;29;20527;-75
2023/05/18 10:32:39;;;;;;;4.47;0.87;;;;;;;;;;4906202;29;20504;-74
2023/05/18 10:35:05;;;;;;;4.40;1.00;;;;;;;;;;4893666;29;20044;-75
2023/05/18 10:37:34;;;;;;;4.23;0.80;;;;;;;;;;4891493;29;20032;-75
2023/05/18 10:40:00;;;;;;;4.43;1.10;;;;;;;;;;4907317;29;20504;-76
2023/05/18 10:42:27;;;;;;;4.05;1.02;;;;;;;;;;4887418;29;20068;-77
2023/05/18 10:44:53;;;;;;;3.97;0.80;;;;;;;;;;4939880;28;20038;-76
2023/05/18 10:47:19;;;;;;;4.22;0.80;;;;;;;;;;4974248;28;20037;-75
2023/05/18 10:49:48;;;;;;;4.95;1.00;;;;;;;;;;4996477;28;20101;-75
2023/05/18 10:52:15;;;;;;;3.50;0.70;;;;;;;;;;4992660;28;20046;-76
2023/05/18 10:54:41;;;;;;;3.97;0.68;;;;;;;;;;4977735;28;20041;-76
2023/05/18 10:57:10;;;;;;;4.97;0.80;;;;;;;;;;4994202;28;20041;-76
2023/05/18 10:59:38;;;;;;;3.80;0.88;;;;;;;;;;4977323;28;20036;-75
2023/05/18 11:02:04;;;;;;;3.63;0.60;;;;;;;;;;4975555;28;20481;-78
2023/05/18 11:04:30;;;;;;;3.58;0.90;;;;;;;;;;4993121;28;20114;-75
2023/05/18 11:06:58;;;;;;;4.15;0.90;;;;;;;;;;4975529;28;20453;-75
2023/05/18 11:09:24;;;;;;;2.25;0.52;;;;;;;;;;4976559;28;20041;-76
2023/05/18 11:11:54;;;;;;;3.95;0.77;;;;;;;;;;4979122;28;20041;-76
2023/05/18 11:14:26;;;;;;;3.35;0.70;;;;;;;;;;4991992;28;20483;-75
2023/05/18 11:16:52;;;;;;;4.40;0.60;;;;;;;;;;4994533;28;20401;-75
2023/05/18 11:19:19;;;;;;;3.70;0.80;;;;;;;;;;4976422;28;20030;-76
2023/05/18 11:21:45;;;;;;;4.55;0.80;;;;;;;;;;4993239;28;20042;-77
2023/05/18 11:24:20;;;;;;;4.10;0.73;;;;;;;;;;4994056;28;20041;-77
2023/05/18 11:26:59;;;;;;;2.92;0.65;;;;;;;;;;4993291;28;20107;-77
2023/05/18 11:29:33;;;;;;;4.80;0.85;;;;;;;;;;4970799;28;20540;-77
2023/05/18 11:31:59;;;;;;;3.63;0.77;;;;;;;;;;4974620;28;20466;-76
2023/05/18 11:34:32;;;;;;;3.63;0.90;;;;;;;;;;4979001;28;20065;-76
2023/05/18 11:36:59;;;;;;;3.83;0.80;;;;;;;;;;4992777;28;20057;-76
2023/05/18 11:39:24;;;;;;;3.42;0.90;;;;;;;;;;4994371;28;20076;-76
2023/05/18 11:42:10;;;;;;;2.67;0.70;;;;;;;;;;4991865;28;20442;-74
2023/05/18 11:44:35;;;;;;;3.92;0.85;;;;;;;;;;4975361;28;20042;-77
2023/05/18 11:47:07;;;;;;;6.35;1.10;;;;;;;;;;4977020;28;20049;-77
2023/05/18 11:49:36;;;;;;;2.47;0.82;;;;;;;;;;4975716;28;20454;-77
2023/05/18 11:52:12;;;;;;;4.78;1.00;;;;;;;;;;4993153;28;20042;-76
2023/05/18 11:54:44;;;;;;;4.88;0.82;;;;;;;;;;4961958;28;20694;-77
2023/05/18 11:57:10;;;;;;;4.03;0.70;;;;;;;;;;4975938;28;20034;-77
2023/05/18 11:59:40;;;;;;;4.40;0.80;;;;;;;;;;4978730;28;20060;-76
2023/05/18 12:02:07;;;;;;;5.50;0.82;;;;;;;;;;4977541;28;20565;-76
2023/05/18 12:04:33;;;;;;;3.35;0.80;;;;;;;;;;4976551;28;20121;-76
2023/05/18 12:06:59;;;;;;;4.78;0.80;;;;;;;;;;4982055;28;20523;-76
2023/05/18 12:09:25;;;;;;;2.88;0.98;;;;;;;;;;4994013;28;20061;-76
2023/05/18 12:11:50;;;;;;;4.00;0.88;;;;;;;;;;4990225;28;20038;-77
2023/05/18 12:14:19;;;;;;;3.45;0.80;;;;;;;;;;4993184;28;20188;-77
2023/05/18 12:16:46;;;;;;;4.38;0.98;;;;;;;;;;4958551;28;20363;-76
2023/05/18 12:19:11;;;;;;;3.60;0.82;;;;;;;;;;4994213;28;20530;-76
2023/05/18 12:21:37;;;;;;;6.38;0.95;;;;;;;;;;4992027;28;20092;-76
2023/05/18 12:24:03;;;;;;;3.92;0.88;;;;;;;;;;4993867;28;20497;-76
2023/05/18 12:26:29;;;;;;;4.20;1.00;;;;;;;;;;4975679;28;20048;-77
2023/05/18 12:28:55;;;;;;;3.85;1.02;;;;;;;;;;4991256;28;20043;-76
2023/05/18 12:31:21;;;;;;;3.30;0.73;;;;;;;;;;4973950;28;20038;-76
2023/05/18 12:33:46;;;;;;;3.58;0.85;;;;;;;;;;4994218;28;20037;-77
2023/05/18 12:36:13;;;;;;;5.22;0.88;;;;;;;;;;4992712;28;20041;-75
2023/05/18 12:38:39;;;;;;;2.17;0.70;;;;;;;;;;4994478;28;20041;-76
2023/05/18 12:41:05;;;;;;;2.83;0.80;;;;;;;;;;4989203;28;20039;-77
2023/05/18 12:43:34;;;;;;;3.80;0.90;;;;;;;;;;4993747;28;20068;-76
2023/05/18 12:46:03;;;;;;;3.60;0.82;;;;;;;;;;4976445;28;20034;-76
2023/05/18 12:48:35;;;;;;;2.58;0.60;;;;;;;;;;4974550;28;20038;-76
2023/05/18 12:51:01;;;;;;;3.95;0.90;;;;;;;;;;4991105;28;20505;-76
2023/05/18 12:53:26;;;;;;;3.42;0.88;;;;;;;;;;4960648;28;20046;-76
2023/05/18 12:55:58;;;;;;;4.07;0.90;;;;;;;;;;4991469;28;20072;-76
2023/05/18 12:58:24;;;;;;;3.20;0.85;;;;;;;;;;4958780;28;20034;-77
2023/05/18 13:00:49;;;;;;;3.88;0.77;;;;;;;;;;4974389;28;20061;-76
2023/05/18 13:03:16;;;;;;;3.50;1.00;;;;;;;;;;4992448;28;20030;-77
2023/05/18 13:05:46;;;;;;;3.20;0.70;;;;;;;;;;4992138;28;20049;-76
2023/05/18 13:08:17;;;;;;;7.13;0.98;;;;;;;;;;4978329;28;20462;-76
2023/05/18 13:10:44;;;;;;;4.13;0.95;;;;;;;;;;4975003;28;20034;-76
2023/05/18 13:13:09;;;;;;;4.32;1.10;;;;;;;;;;4960704;28;20038;-76
2023/05/18 13:15:36;;;;;;;6.43;1.27;;;;;;;;;;4974795;28;20069;-77
2023/05/18 13:18:04;;;;;;;5.05;1.60;;;;;;;;;;4992920;28;20037;-76
2023/05/18 13:20:31;;;;;;;2.67;0.80;;;;;;;;;;4973392;28;20041;-77
2023/05/18 13:22:58;;;;;;;2.97;0.80;;;;;;;;;;4975918;28;20069;-77
2023/05/18 13:25:25;;;;;;;3.83;0.80;;;;;;;;;;4973338;28;20049;-80
2023/05/18 13:27:53;;;;;;;6.03;1.07;;;;;;;;;;4976492;28;20041;-78
2023/05/18 13:30:20;;;;;;;5.93;0.93;;;;;;;;;;4973905;28;20046;-79
2023/05/18 13:32:45;;;;;;;3.60;0.88;;;;;;;;;;4974631;28;20509;-78
2023/05/18 13:35:12;;;;;;;3.67;1.08;;;;;;;;;;4975725;28;20034;-78
2023/05/18 13:37:37;;;;;;;5.15;0.93;;;;;;;;;;4975026;28;20034;-79
2023/05/18 13:40:03;;;;;;;4.07;1.00;;;;;;;;;;4969122;28;20108;-79
2023/05/18 13:42:29;;;;;;;3.67;0.80;;;;;;;;;;4993001;28;20084;-78
2023/05/18 13:44:54;;;;;;;3.45;0.70;;;;;;;;;;4990292;28;20034;-78
2023/05/18 13:47:20;;;;;;;3.58;0.77;;;;;;;;;;4992075;28;20445;-79
2023/05/18 13:49:45;;;;;;;2.55;0.70;;;;;;;;;;4972610;28;20038;-79
2023/05/18 13:52:11;;;;;;;3.90;0.80;;;;;;;;;;4992456;28;20093;-79
2023/05/18 13:54:37;;;;;;;4.25;1.00;;;;;;;;;;4994025;28;20045;-79
2023/05/18 13:57:02;;;;;;;3.17;0.80;;;;;;;;;;4974205;28;20497;-79
2023/05/18 13:59:27;;;;;;;4.75;1.00;;;;;;;;;;4974646;28;20039;-79
2023/05/18 14:01:53;;;;;;;3.33;0.80;;;;;;;;;;4974442;28;20030;-78
2023/05/18 14:04:18;;;;;;;2.63;0.70;;;;;;;;;;4990638;28;20109;-79
2023/05/18 14:06:44;;;;;;;3.38;0.73;;;;;;;;;;4959296;28;20038;-79
2023/05/18 14:09:09;;;;;;;3.30;0.80;;;;;;;;;;4974977;28;20062;-79
2023/05/18 14:11:37;;;;;;;4.25;1.30;;;;;;;;;;4991588;28;20038;-78
2023/05/18 14:14:02;;;;;;;2.80;0.63;;;;;;;;;;4992301;28;20041;-79
2023/05/18 14:16:28;;;;;;;3.55;1.02;;;;;;;;;;4990198;28;20041;-80
2023/05/18 14:18:54;;;;;;;3.38;0.75;;;;;;;;;;4975761;28;20037;-78
2023/05/18 14:21:19;;;;;;;3.53;1.00;;;;;;;;;;4975251;28;20482;-79
2023/05/18 14:23:46;;;;;;;4.97;0.88;;;;;;;;;;4976524;28;20034;-79
2023/05/18 14:26:12;;;;;;;3.83;0.82;;;;;;;;;;4974433;28;20049;-78
2023/05/18 14:28:37;;;;;;;3.70;0.82;;;;;;;;;;4992890;28;20472;-78
2023/05/18 14:31:03;;;;;;;2.80;0.90;;;;;;;;;;4988928;28;20046;-78
2023/05/18 14:33:28;;;;;;;3.65;1.25;;;;;;;;;;4958415;28;20026;-79
2023/05/18 14:35:55;;;;;;;2.78;0.82;;;;;;;;;;4993590;28;20041;-79
2023/05/18 14:38:25;;;;;;;3.97;1.08;;;;;;;;;;4977824;28;20065;-78
2023/05/18 14:40:51;;;;;;;3.60;1.08;;;;;;;;;;4978812;28;20227;-79
2023/05/18 14:43:16;;;;;;;3.95;1.20;;;;;;;;;;4981959;28;20093;-78